McGuffey, OH (45859)

7:13 AM EST on February 13, 2016 (GMT -0500)
Lima Allen County | | Change Station
CLOSE
Current Station
Airport
Location: Lima,
Elevation: 974 ft
Nearby Weather Stations
Active Advisory: Wind Chill Advisory

Elev 974 ft 40.71 °N, 84.03 °W | Updated 20 minutes ago

Clear
Clear
4 °F
Feels Like -9 °F
N
8
Wind Variable Wind from WNW

Today
High -- | Low -- °F
--% Chance of Precip.
Yesterday
High -- | Low -- °F
Precip. -- in
Pressure 30.47 in
Visibility 10.0 miles
Clouds Clear
Windchill -9 °F
Dew Point -4 °F
Humidity 70%
Rainfall 0.00 in
Snow Depth Not available.
7:32 AM 6:07 PM
Waxing Crescent, 30% visible
METAR KAOH 131153Z AUTO 30007KT 10SM CLR M16/M20 A3041 RMK AO2 SLP318 60000 T11561200 11111 21156 51022
Pressure 30.47 in
Visibility 10.0 miles
Clouds Clear
Windchill -9 °F
Dew Point -4 °F
Humidity 70%
Rainfall 0.00 in
Snow Depth Not available.
7:32 AM 6:07 PM
Waxing Crescent, 30% visible
METAR KAOH 131153Z AUTO 30007KT 10SM CLR M16/M20 A3041 RMK AO2 SLP318 60000 T11561200 11111 21156 51022

10-Day Weather Forecast

Almanac

Astronomy

Feb. 13, 2016 Rise Set
Actual Time
Civil Twilight
Nautical Twilight
Astronomical Twilight
Moon
Length of Visible Light
Length of Day
Tomorrow will be .
, % of the Moon is Illuminated

Today's Extremes

State Highs State Lows

Community

WunderPhotos

Upload Photos

1,892,543 photos uploaded!

WunderBlog® & News

Nearby

Air Quality

  Air Quality AQ Index Pollutant
Not available.

Snow Depth

Station Depth Elevation

Earthquake Activity

City Distance Mag. Time & Date
Minimum magnitude displayed is 2.5.

Coastal Water Temperatures

Place Temperature

Stations

Nearby Weather Stations

Station Location Temp. Windchill Dew Point Humidity Wind Precip. Elev Updated Type
                   

Watches & Warnings

Wind Chill Advisory
Issued: 4:04 AM EST Feb. 13, 2016 – National Weather Service

... Wind Chill Advisory remains in effect until 10 am EST this
morning...

* wind chill readings... as low as 10 below.

* Impacts... the frigid conditions will be dangerous to those
venturing outside. Exposure may cause frostbite.

* Winds... northwest 10 to 15 mph with gusts up to 20 mph.

* Temperatures... 6 to 12 above.

Precautionary/preparedness actions...

A Wind Chill Advisory is issued when a strong wind will combine
with cold temperatures to create dangerously cold conditions for
exposed skin. The wind will make it feel like it is between
10 and 24 degrees below zero for a period of several hours. Those
planning to venture outdoors should use common sense and dress
warmly... making sure that all exposed skin is covered.